sensor_id;sensor_type;location;lat;lon;timestamp;pressure;altitude;pressure_sealevel;temperature;humidity
44313;BME280;38833;51.142;-0.974;2022-08-03T00:02:27;99949.27;;;26.96;35.53
44313;BME280;38833;51.142;-0.974;2022-08-03T00:05:00;99947.26;;;26.97;35.49
44313;BME280;38833;51.142;-0.974;2022-08-03T00:07:34;99944.85;;;27.19;35.51
44313;BME280;38833;51.142;-0.974;2022-08-03T00:10:08;99944.61;;;27.20;35.48
44313;BME280;38833;51.142;-0.974;2022-08-03T00:12:41;99940.53;;;27.20;35.48
44313;BME280;38833;51.142;-0.974;2022-08-03T00:15:15;99939.98;;;26.99;35.46
44313;BME280;38833;51.142;-0.974;2022-08-03T00:17:48;99938.53;;;27.21;35.48
44313;BME280;38833;51.142;-0.974;2022-08-03T00:20:22;99938.57;;;27.26;35.40
44313;BME280;38833;51.142;-0.974;2022-08-03T00:22:55;99934.65;;;27.21;35.48
44313;BME280;38833;51.142;-0.974;2022-08-03T00:25:28;99938.41;;;27.20;35.50
44313;BME280;38833;51.142;-0.974;2022-08-03T00:28:02;99942.97;;;27.18;35.52
44313;BME280;38833;51.142;-0.974;2022-08-03T00:30:36;99944.08;;;27.22;35.49
44313;BME280;38833;51.142;-0.974;2022-08-03T00:33:09;99942.65;;;27.21;35.50
44313;BME280;38833;51.142;-0.974;2022-08-03T00:35:42;99945.26;;;27.19;35.53
44313;BME280;38833;51.142;-0.974;2022-08-03T00:38:15;99947.57;;;27.16;35.56
44313;BME280;38833;51.142;-0.974;2022-08-03T00:40:49;99946.89;;;27.14;35.60
44313;BME280;38833;51.142;-0.974;2022-08-03T00:43:25;99941.65;;;26.89;35.68
44313;BME280;38833;51.142;-0.974;2022-08-03T00:45:58;99938.71;;;27.11;35.65
44313;BME280;38833;51.142;-0.974;2022-08-03T00:48:31;99937.20;;;26.87;35.69
44313;BME280;38833;51.142;-0.974;2022-08-03T00:51:05;99937.34;;;27.08;35.69
44313;BME280;38833;51.142;-0.974;2022-08-03T00:53:38;99935.34;;;27.08;35.68
44313;BME280;38833;51.142;-0.974;2022-08-03T00:56:12;99938.29;;;26.85;35.69
44313;BME280;38833;51.142;-0.974;2022-08-03T00:58:46;99936.89;;;26.88;35.65
44313;BME280;38833;51.142;-0.974;2022-08-03T01:01:19;99933.56;;;27.14;35.62
44313;BME280;38833;51.142;-0.974;2022-08-03T01:03:52;99934.37;;;27.10;35.65
44313;BME280;38833;51.142;-0.974;2022-08-03T01:06:35;99935.37;;;27.06;35.71
44313;BME280;38833;51.142;-0.974;2022-08-03T01:09:19;99933.68;;;27.07;35.68
44313;BME280;38833;51.142;-0.974;2022-08-03T01:12:00;99930.91;;;27.06;35.66
44313;BME280;38833;51.142;-0.974;2022-08-03T01:14:39;99932.87;;;27.08;35.64
44313;BME280;38833;51.142;-0.974;2022-08-03T01:17:19;99928.94;;;26.88;35.58
44313;BME280;38833;51.142;-0.974;2022-08-03T01:20:00;99929.01;;;27.08;35.60
44313;BME280;38833;51.142;-0.974;2022-08-03T01:22:45;99931.51;;;27.09;35.56
44313;BME280;38833;51.142;-0.974;2022-08-03T01:25:31;99935.87;;;26.84;35.58
44313;BME280;38833;51.142;-0.974;2022-08-03T01:28:21;99933.42;;;27.02;35.64
44313;BME280;38833;51.142;-0.974;2022-08-03T01:31:02;99931.55;;;27.08;35.54
44313;BME280;38833;51.142;-0.974;2022-08-03T01:33:41;99932.54;;;27.11;35.48
44313;BME280;38833;51.142;-0.974;2022-08-03T01:36:18;99932.37;;;27.05;35.52
44313;BME280;38833;51.142;-0.974;2022-08-03T01:38:57;99926.43;;;27.09;35.46
44313;BME280;38833;51.142;-0.974;2022-08-03T01:41:36;99927.32;;;27.19;35.32
44313;BME280;38833;51.142;-0.974;2022-08-03T01:44:11;99928.31;;;27.17;35.32
44313;BME280;38833;51.142;-0.974;2022-08-03T01:46:45;99926.27;;;27.22;35.24
44313;BME280;38833;51.142;-0.974;2022-08-03T01:49:20;99923.58;;;27.05;35.18
44313;BME280;38833;51.142;-0.974;2022-08-03T01:51:55;99918.38;;;27.28;35.14
44313;BME280;38833;51.142;-0.974;2022-08-03T01:54:30;99919.42;;;27.29;35.14
44313;BME280;38833;51.142;-0.974;2022-08-03T01:57:05;99917.53;;;27.03;35.20
44313;BME280;38833;51.142;-0.974;2022-08-03T01:59:41;99911.88;;;27.24;35.17
44313;BME280;38833;51.142;-0.974;2022-08-03T02:02:21;99907.51;;;26.99;35.19
44313;BME280;38833;51.142;-0.974;2022-08-03T02:04:55;99907.94;;;26.98;34.88
44313;BME280;38833;51.142;-0.974;2022-08-03T02:07:30;99903.32;;;27.01;34.49
44313;BME280;38833;51.142;-0.974;2022-08-03T02:10:05;99895.55;;;27.58;34.38
44313;BME280;38833;51.142;-0.974;2022-08-03T02:12:39;99891.95;;;27.30;34.36
44313;BME280;38833;51.142;-0.974;2022-08-03T02:15:15;99890.54;;;27.40;34.24
44313;BME280;38833;51.142;-0.974;2022-08-03T02:17:49;99893.90;;;27.77;33.75
44313;BME280;38833;51.142;-0.974;2022-08-03T02:20:24;99891.98;;;27.53;34.05
44313;BME280;38833;51.142;-0.974;2022-08-03T02:22:58;99888.87;;;27.54;34.05
44313;BME280;38833;51.142;-0.974;2022-08-03T02:25:32;99892.84;;;27.58;33.96
44313;BME280;38833;51.142;-0.974;2022-08-03T02:28:10;99882.15;;;27.45;33.88
44313;BME280;38833;51.142;-0.974;2022-08-03T02:30:46;99886.09;;;27.20;33.91
44313;BME280;38833;51.142;-0.974;2022-08-03T02:33:24;99883.31;;;27.41;33.89
44313;BME280;38833;51.142;-0.974;2022-08-03T02:35:59;99880.14;;;27.35;33.99
44313;BME280;38833;51.142;-0.974;2022-08-03T02:38:36;99881.42;;;27.52;34.04
44313;BME280;38833;51.142;-0.974;2022-08-03T02:41:15;99876.09;;;27.58;33.95
44313;BME280;38833;51.142;-0.974;2022-08-03T02:43:53;99875.70;;;27.65;33.88
44313;BME280;38833;51.142;-0.974;2022-08-03T02:46:29;99872.10;;;27.54;34.06
44313;BME280;38833;51.142;-0.974;2022-08-03T02:49:05;99876.04;;;27.15;34.01
44313;BME280;38833;51.142;-0.974;2022-08-03T02:51:40;99874.97;;;27.32;34.05
44313;BME280;38833;51.142;-0.974;2022-08-03T02:54:17;99868.54;;;27.18;33.96
44313;BME280;38833;51.142;-0.974;2022-08-03T02:56:53;99855.96;;;27.13;33.99
44313;BME280;38833;51.142;-0.974;2022-08-03T02:59:27;99851.55;;;27.67;33.86
44313;BME280;38833;51.142;-0.974;2022-08-03T03:02:02;99851.73;;;27.68;33.89
44313;BME280;38833;51.142;-0.974;2022-08-03T03:04:36;99847.12;;;27.59;33.95
44313;BME280;38833;51.142;-0.974;2022-08-03T03:07:12;99853.53;;;26.94;34.51
44313;BME280;38833;51.142;-0.974;2022-08-03T03:09:46;99859.76;;;27.44;34.47
44313;BME280;38833;51.142;-0.974;2022-08-03T03:12:20;99859.73;;;27.26;34.35
44313;BME280;38833;51.142;-0.974;2022-08-03T03:14:54;99855.43;;;27.51;34.68
44313;BME280;38833;51.142;-0.974;2022-08-03T03:17:28;99861.78;;;27.14;34.50
44313;BME280;38833;51.142;-0.974;2022-08-03T03:20:03;99855.18;;;27.56;34.60
44313;BME280;38833;51.142;-0.974;2022-08-03T03:22:39;99853.83;;;27.15;34.84
44313;BME280;38833;51.142;-0.974;2022-08-03T03:25:13;99854.04;;;27.20;35.04
44313;BME280;38833;51.142;-0.974;2022-08-03T03:27:47;99855.21;;;27.13;35.16
44313;BME280;38833;51.142;-0.974;2022-08-03T03:30:20;99855.16;;;27.12;35.15
44313;BME280;38833;51.142;-0.974;2022-08-03T03:32:54;99853.94;;;27.08;35.21
44313;BME280;38833;51.142;-0.974;2022-08-03T03:35:29;99852.70;;;27.03;35.24
44313;BME280;38833;51.142;-0.974;2022-08-03T03:38:02;99857.73;;;26.97;35.00
44313;BME280;38833;51.142;-0.974;2022-08-03T03:40:37;99852.58;;;27.15;34.81
44313;BME280;38833;51.142;-0.974;2022-08-03T03:43:11;99852.64;;;26.88;35.13
44313;BME280;38833;51.142;-0.974;2022-08-03T03:45:45;99862.63;;;27.15;35.07
44313;BME280;38833;51.142;-0.974;2022-08-03T03:48:19;99863.88;;;27.45;34.67
44313;BME280;38833;51.142;-0.974;2022-08-03T03:50:53;99862.09;;;27.52;34.61
44313;BME280;38833;51.142;-0.974;2022-08-03T03:53:26;99857.99;;;27.18;34.76
44313;BME280;38833;51.142;-0.974;2022-08-03T03:55:59;99868.29;;;27.20;35.02
44313;BME280;38833;51.142;-0.974;2022-08-03T03:58:33;99862.39;;;27.45;34.67
44313;BME280;38833;51.142;-0.974;2022-08-03T04:01:06;99866.38;;;27.18;35.03
44313;BME280;38833;51.142;-0.974;2022-08-03T04:03:39;99867.48;;;27.15;34.79
44313;BME280;38833;51.142;-0.974;2022-08-03T04:06:13;99867.25;;;27.16;35.05
44313;BME280;38833;51.142;-0.974;2022-08-03T04:08:47;99868.85;;;27.12;35.08
44313;BME280;38833;51.142;-0.974;2022-08-03T04:11:22;99865.55;;;27.15;35.05
44313;BME280;38833;51.142;-0.974;2022-08-03T04:13:59;99865.53;;;27.30;34.80
44313;BME280;38833;51.142;-0.974;2022-08-03T04:16:36;99871.38;;;26.92;35.30
44313;BME280;38833;51.142;-0.974;2022-08-03T04:19:14;99865.32;;;26.94;35.29
44313;BME280;38833;51.142;-0.974;2022-08-03T04:21:51;99867.70;;;26.89;35.36
44313;BME280;38833;51.142;-0.974;2022-08-03T04:24:32;99871.21;;;26.45;35.29
44313;BME280;38833;51.142;-0.974;2022-08-03T04:27:08;99873.33;;;26.87;35.08
44313;BME280;38833;51.142;-0.974;2022-08-03T04:29:46;99873.28;;;27.18;34.94
44313;BME280;38833;51.142;-0.974;2022-08-03T04:32:22;99871.47;;;27.18;34.89
44313;BME280;38833;51.142;-0.974;2022-08-03T04:34:57;99878.11;;;26.92;35.29
44313;BME280;38833;51.142;-0.974;2022-08-03T04:37:36;99881.14;;;27.01;35.17
44313;BME280;38833;51.142;-0.974;2022-08-03T04:40:13;99884.00;;;26.98;35.21
44313;BME280;38833;51.142;-0.974;2022-08-03T04:42:48;99879.37;;;26.71;35.25
44313;BME280;38833;51.142;-0.974;2022-08-03T04:45:22;99879.22;;;26.88;35.29
44313;BME280;38833;51.142;-0.974;2022-08-03T04:47:56;99879.58;;;26.97;35.18
44313;BME280;38833;51.142;-0.974;2022-08-03T04:50:30;99875.20;;;26.77;35.42
44313;BME280;38833;51.142;-0.974;2022-08-03T04:53:05;99870.69;;;27.06;35.00
44313;BME280;38833;51.142;-0.974;2022-08-03T04:55:38;99872.40;;;26.99;35.11
44313;BME280;38833;51.142;-0.974;2022-08-03T04:58:11;99873.14;;;27.17;34.88
44313;BME280;38833;51.142;-0.974;2022-08-03T05:00:44;99877.29;;;26.39;35.27
44313;BME280;38833;51.142;-0.974;2022-08-03T05:03:18;99871.76;;;27.14;34.94
44313;BME280;38833;51.142;-0.974;2022-08-03T05:05:51;99866.48;;;27.01;35.11
44313;BME280;38833;51.142;-0.974;2022-08-03T05:08:24;99866.28;;;26.95;34.90
44313;BME280;38833;51.142;-0.974;2022-08-03T05:10:58;99870.48;;;26.89;35.28
44313;BME280;38833;51.142;-0.974;2022-08-03T05:13:31;99867.61;;;26.77;35.47
44313;BME280;38833;51.142;-0.974;2022-08-03T05:16:04;99864.95;;;27.06;35.09
44313;BME280;38833;51.142;-0.974;2022-08-03T05:18:38;99870.00;;;26.94;35.22
44313;BME280;38833;51.142;-0.974;2022-08-03T05:21:13;99862.00;;;27.19;34.93
44313;BME280;38833;51.142;-0.974;2022-08-03T05:23:46;99872.70;;;26.85;35.39
44313;BME280;38833;51.142;-0.974;2022-08-03T05:26:19;99870.60;;;26.95;35.27
44313;BME280;38833;51.142;-0.974;2022-08-03T05:28:53;99870.66;;;26.85;35.41
44313;BME280;38833;51.142;-0.974;2022-08-03T05:31:26;99873.33;;;26.89;35.33
44313;BME280;38833;51.142;-0.974;2022-08-03T05:33:59;99876.42;;;26.83;35.41
44313;BME280;38833;51.142;-0.974;2022-08-03T05:36:32;99869.86;;;26.89;35.30
44313;BME280;38833;51.142;-0.974;2022-08-03T05:39:05;99871.31;;;26.83;35.40
44313;BME280;38833;51.142;-0.974;2022-08-03T05:41:39;99874.57;;;26.76;35.46
44313;BME280;38833;51.142;-0.974;2022-08-03T05:44:12;99878.65;;;27.05;35.06
44313;BME280;38833;51.142;-0.974;2022-08-03T05:46:45;99876.87;;;26.82;35.39
44313;BME280;38833;51.142;-0.974;2022-08-03T05:49:19;99875.15;;;26.93;35.22
44313;BME280;38833;51.142;-0.974;2022-08-03T05:51:52;99877.48;;;27.01;35.08
44313;BME280;38833;51.142;-0.974;2022-08-03T05:54:25;99875.11;;;27.02;35.05
44313;BME280;38833;51.142;-0.974;2022-08-03T05:56:59;99865.06;;;27.24;34.75
44313;BME280;38833;51.142;-0.974;2022-08-03T05:59:32;99871.98;;;26.98;35.07
44313;BME280;38833;51.142;-0.974;2022-08-03T06:02:05;99875.58;;;26.96;35.12
44313;BME280;38833;51.142;-0.974;2022-08-03T06:04:39;99872.95;;;27.19;34.80
44313;BME280;38833;51.142;-0.974;2022-08-03T06:07:12;99881.69;;;27.16;34.86
44313;BME280;38833;51.142;-0.974;2022-08-03T06:09:45;99887.23;;;26.99;35.06
44313;BME280;38833;51.142;-0.974;2022-08-03T06:12:19;99891.44;;;26.85;35.27
44313;BME280;38833;51.142;-0.974;2022-08-03T06:14:52;99890.14;;;27.01;35.04
44313;BME280;38833;51.142;-0.974;2022-08-03T06:17:25;99893.35;;;26.92;35.20
44313;BME280;38833;51.142;-0.974;2022-08-03T06:19:59;99896.55;;;26.85;35.29
44313;BME280;38833;51.142;-0.974;2022-08-03T06:22:32;99893.19;;;26.82;35.31
44313;BME280;38833;51.142;-0.974;2022-08-03T06:25:06;99890.97;;;27.00;35.06
44313;BME280;38833;51.142;-0.974;2022-08-03T06:27:39;99895.52;;;26.80;35.34
44313;BME280;38833;51.142;-0.974;2022-08-03T06:30:13;99896.07;;;26.88;35.23
44313;BME280;38833;51.142;-0.974;2022-08-03T06:32:46;99896.03;;;26.90;35.23
44313;BME280;38833;51.142;-0.974;2022-08-03T06:35:20;99894.34;;;26.80;35.31
44313;BME280;38833;51.142;-0.974;2022-08-03T06:37:53;99892.90;;;26.88;35.22
44313;BME280;38833;51.142;-0.974;2022-08-03T06:40:27;99897.15;;;26.74;35.41
44313;BME280;38833;51.142;-0.974;2022-08-03T06:43:01;99890.35;;;26.70;35.47
44313;BME280;38833;51.142;-0.974;2022-08-03T06:45:35;99894.69;;;26.91;35.20
44313;BME280;38833;51.142;-0.974;2022-08-03T06:48:10;99896.49;;;26.86;35.27
44313;BME280;38833;51.142;-0.974;2022-08-03T06:50:44;99892.51;;;26.76;35.45
44313;BME280;38833;51.142;-0.974;2022-08-03T06:53:17;99895.86;;;26.91;35.24
44313;BME280;38833;51.142;-0.974;2022-08-03T06:55:50;99894.62;;;26.75;35.46
44313;BME280;38833;51.142;-0.974;2022-08-03T06:58:24;99893.57;;;26.73;35.47
44313;BME280;38833;51.142;-0.974;2022-08-03T07:00:57;99894.01;;;26.81;35.40
44313;BME280;38833;51.142;-0.974;2022-08-03T07:03:31;99889.67;;;26.77;35.45
44313;BME280;38833;51.142;-0.974;2022-08-03T07:06:04;99891.35;;;26.83;35.39
44313;BME280;38833;51.142;-0.974;2022-08-03T07:08:38;99895.84;;;27.08;35.40
44313;BME280;38833;51.142;-0.974;2022-08-03T07:11:11;99908.74;;;27.05;35.44
44313;BME280;38833;51.142;-0.974;2022-08-03T07:13:44;99913.89;;;27.07;35.03
44313;BME280;38833;51.142;-0.974;2022-08-03T07:16:17;99915.70;;;26.92;35.24
44313;BME280;38833;51.142;-0.974;2022-08-03T07:18:51;99913.49;;;26.85;35.36
44313;BME280;38833;51.142;-0.974;2022-08-03T07:21:24;99909.92;;;26.81;35.44
44313;BME280;38833;51.142;-0.974;2022-08-03T07:23:57;99910.15;;;26.58;35.48
44313;BME280;38833;51.142;-0.974;2022-08-03T07:26:31;99913.95;;;26.85;35.44
44313;BME280;38833;51.142;-0.974;2022-08-03T07:29:04;99906.55;;;26.91;35.40
44313;BME280;38833;51.142;-0.974;2022-08-03T07:31:37;99912.18;;;26.90;35.41
44313;BME280;38833;51.142;-0.974;2022-08-03T07:34:10;99912.94;;;26.86;35.48
44313;BME280;38833;51.142;-0.974;2022-08-03T07:36:44;99910.81;;;26.82;35.54
44313;BME280;38833;51.142;-0.974;2022-08-03T07:39:17;99914.61;;;26.84;35.54
44313;BME280;38833;51.142;-0.974;2022-08-03T07:41:50;99915.05;;;26.77;35.62
44313;BME280;38833;51.142;-0.974;2022-08-03T07:44:24;99914.34;;;26.77;35.64
44313;BME280;38833;51.142;-0.974;2022-08-03T07:46:57;99908.76;;;26.78;35.63
44313;BME280;38833;51.142;-0.974;2022-08-03T07:49:30;99914.40;;;26.82;35.54
44313;BME280;38833;51.142;-0.974;2022-08-03T07:52:04;99911.48;;;26.82;35.60
44313;BME280;38833;51.142;-0.974;2022-08-03T07:54:37;99912.71;;;26.89;35.51
44313;BME280;38833;51.142;-0.974;2022-08-03T07:57:10;99912.79;;;26.88;35.54
44313;BME280;38833;51.142;-0.974;2022-08-03T07:59:45;99914.81;;;27.15;35.55
44313;BME280;38833;51.142;-0.974;2022-08-03T08:02:18;99913.08;;;27.00;35.36
44313;BME280;38833;51.142;-0.974;2022-08-03T08:04:51;99910.65;;;27.26;35.05
44313;BME280;38833;51.142;-0.974;2022-08-03T08:07:25;99916.49;;;27.24;35.04
44313;BME280;38833;51.142;-0.974;2022-08-03T08:09:58;99921.72;;;27.36;34.92
44313;BME280;38833;51.142;-0.974;2022-08-03T08:12:31;99926.27;;;27.45;34.82
44313;BME280;38833;51.142;-0.974;2022-08-03T08:15:06;99926.40;;;27.08;35.30
44313;BME280;38833;51.142;-0.974;2022-08-03T08:17:43;99930.70;;;27.00;35.42
44313;BME280;38833;51.142;-0.974;2022-08-03T08:20:20;99927.59;;;27.30;35.40
44313;BME280;38833;51.142;-0.974;2022-08-03T08:22:55;99927.38;;;26.96;35.49
44313;BME280;38833;51.142;-0.974;2022-08-03T08:25:29;99927.93;;;26.93;35.54
44313;BME280;38833;51.142;-0.974;2022-08-03T08:28:03;99926.17;;;26.94;35.57
44313;BME280;38833;51.142;-0.974;2022-08-03T08:30:36;99926.43;;;26.98;35.54
44313;BME280;38833;51.142;-0.974;2022-08-03T08:33:10;99922.76;;;26.80;35.47
44313;BME280;38833;51.142;-0.974;2022-08-03T08:35:43;99926.02;;;26.94;35.25
44313;BME280;38833;51.142;-0.974;2022-08-03T08:38:16;99930.44;;;27.20;35.25
44313;BME280;38833;51.142;-0.974;2022-08-03T08:40:50;99933.38;;;27.36;35.00
44313;BME280;38833;51.142;-0.974;2022-08-03T08:43:23;99936.97;;;26.81;35.45
44313;BME280;38833;51.142;-0.974;2022-08-03T08:45:57;99934.24;;;27.00;35.48
44313;BME280;38833;51.142;-0.974;2022-08-03T08:48:31;99934.88;;;27.01;35.47
44313;BME280;38833;51.142;-0.974;2022-08-03T08:51:04;99933.75;;;27.00;35.50
44313;BME280;38833;51.142;-0.974;2022-08-03T08:53:43;99937.02;;;26.90;35.30
44313;BME280;38833;51.142;-0.974;2022-08-03T08:56:17;99933.76;;;26.98;35.53
44313;BME280;38833;51.142;-0.974;2022-08-03T08:58:55;99932.83;;;27.01;35.50
44313;BME280;38833;51.142;-0.974;2022-08-03T09:01:29;99934.12;;;27.06;35.44
44313;BME280;38833;51.142;-0.974;2022-08-03T09:04:05;99938.22;;;26.95;35.60
44313;BME280;38833;51.142;-0.974;2022-08-03T09:06:39;99932.72;;;27.09;35.44
44313;BME280;38833;51.142;-0.974;2022-08-03T09:09:12;99930.50;;;27.32;35.13
44313;BME280;38833;51.142;-0.974;2022-08-03T09:11:47;99931.60;;;27.40;35.02
44313;BME280;38833;51.142;-0.974;2022-08-03T09:14:21;99938.07;;;27.50;34.91
44313;BME280;38833;51.142;-0.974;2022-08-03T09:16:56;99938.65;;;27.39;34.73
44313;BME280;38833;51.142;-0.974;2022-08-03T09:19:32;99935.17;;;27.45;34.68
44313;BME280;38833;51.142;-0.974;2022-08-03T09:22:10;99931.90;;;27.65;34.76
44313;BME280;38833;51.142;-0.974;2022-08-03T09:24:54;99928.20;;;27.56;34.54
44313;BME280;38833;51.142;-0.974;2022-08-03T09:27:28;99932.73;;;27.56;34.58
44313;BME280;38833;51.142;-0.974;2022-08-03T09:30:12;99927.59;;;27.63;34.45
44313;BME280;38833;51.142;-0.974;2022-08-03T09:32:46;99932.53;;;27.66;34.45
44313;BME280;38833;51.142;-0.974;2022-08-03T09:35:26;99935.65;;;27.40;34.82
44313;BME280;38833;51.142;-0.974;2022-08-03T09:38:17;99931.13;;;27.57;34.61
44313;BME280;38833;51.142;-0.974;2022-08-03T09:40:51;99935.96;;;27.66;34.76
44313;BME280;38833;51.142;-0.974;2022-08-03T09:43:25;99928.60;;;27.33;34.57
44313;BME280;38833;51.142;-0.974;2022-08-03T09:46:05;99932.56;;;27.82;34.57
44313;BME280;38833;51.142;-0.974;2022-08-03T09:48:38;99922.19;;;27.59;34.60
44313;BME280;38833;51.142;-0.974;2022-08-03T09:51:11;99921.21;;;27.63;34.53
44313;BME280;38833;51.142;-0.974;2022-08-03T09:53:45;99929.63;;;27.39;34.50
44313;BME280;38833;51.142;-0.974;2022-08-03T09:56:18;99929.63;;;27.63;34.57
44313;BME280;38833;51.142;-0.974;2022-08-03T09:58:51;99928.97;;;27.82;34.64
44313;BME280;38833;51.142;-0.974;2022-08-03T10:01:31;99929.58;;;27.67;34.54
44313;BME280;38833;51.142;-0.974;2022-08-03T10:04:04;99926.16;;;27.84;34.66
44313;BME280;38833;51.142;-0.974;2022-08-03T10:06:38;99927.81;;;27.69;34.58
44313;BME280;38833;51.142;-0.974;2022-08-03T10:09:13;99931.31;;;27.69;34.63
44313;BME280;38833;51.142;-0.974;2022-08-03T10:11:47;99934.35;;;27.92;34.61
44313;BME280;38833;51.142;-0.974;2022-08-03T10:14:20;99930.29;;;27.71;34.56
44313;BME280;38833;51.142;-0.974;2022-08-03T10:16:54;99927.46;;;27.68;34.66
44313;BME280;38833;51.142;-0.974;2022-08-03T10:19:28;99925.45;;;27.64;34.71
44313;BME280;38833;51.142;-0.974;2022-08-03T10:22:03;99923.53;;;27.98;34.56
44313;BME280;38833;51.142;-0.974;2022-08-03T10:24:43;99918.93;;;28.05;34.50
44313;BME280;38833;51.142;-0.974;2022-08-03T10:27:19;99919.76;;;27.84;34.47
44313;BME280;38833;51.142;-0.974;2022-08-03T10:29:55;99919.47;;;27.78;34.55
44313;BME280;38833;51.142;-0.974;2022-08-03T10:32:37;99919.06;;;28.06;34.53
44313;BME280;38833;51.142;-0.974;2022-08-03T10:35:14;99918.96;;;27.14;34.39
44313;BME280;38833;51.142;-0.974;2022-08-03T10:37:53;99923.54;;;27.91;34.35
44313;BME280;38833;51.142;-0.974;2022-08-03T10:40:30;99925.13;;;28.08;34.43
44313;BME280;38833;51.142;-0.974;2022-08-03T10:43:07;99929.93;;;27.79;34.49
44313;BME280;38833;51.142;-0.974;2022-08-03T10:45:42;99929.23;;;27.60;34.44
44313;BME280;38833;51.142;-0.974;2022-08-03T10:48:18;99927.84;;;28.03;34.49
44313;BME280;38833;51.142;-0.974;2022-08-03T10:50:52;99935.02;;;28.02;34.51
44313;BME280;38833;51.142;-0.974;2022-08-03T10:53:34;99930.65;;;27.56;34.48
44313;BME280;38833;51.142;-0.974;2022-08-03T10:56:37;99928.96;;;27.60;34.43
44313;BME280;38833;51.142;-0.974;2022-08-03T10:59:10;99930.37;;;27.51;34.59
44313;BME280;38833;51.142;-0.974;2022-08-03T11:01:52;99928.24;;;27.59;34.46
44313;BME280;38833;51.142;-0.974;2022-08-03T11:04:26;99923.36;;;27.92;34.38
44313;BME280;38833;51.142;-0.974;2022-08-03T11:07:19;99923.61;;;27.87;34.44
44313;BME280;38833;51.142;-0.974;2022-08-03T11:09:54;99925.58;;;28.13;34.37
44313;BME280;38833;51.142;-0.974;2022-08-03T11:12:29;99929.01;;;27.99;34.26
44313;BME280;38833;51.142;-0.974;2022-08-03T11:15:05;99927.57;;;27.98;34.20
44313;BME280;38833;51.142;-0.974;2022-08-03T11:18:06;99929.68;;;27.98;34.19
44313;BME280;38833;51.142;-0.974;2022-08-03T11:20:45;99929.77;;;27.91;34.30
44313;BME280;38833;51.142;-0.974;2022-08-03T11:23:39;99923.22;;;27.93;34.19
44313;BME280;38833;51.142;-0.974;2022-08-03T11:26:14;99926.71;;;27.95;34.22
44313;BME280;38833;51.142;-0.974;2022-08-03T11:28:48;99928.50;;;27.95;34.14
44313;BME280;38833;51.142;-0.974;2022-08-03T11:31:54;99927.40;;;27.94;34.19
44313;BME280;38833;51.142;-0.974;2022-08-03T11:34:27;99926.62;;;28.00;34.16
44313;BME280;38833;51.142;-0.974;2022-08-03T11:37:32;99927.86;;;27.92;34.29
44313;BME280;38833;51.142;-0.974;2022-08-03T11:40:06;99926.67;;;28.00;34.15
44313;BME280;38833;51.142;-0.974;2022-08-03T11:43:05;99923.49;;;28.03;34.16
44313;BME280;38833;51.142;-0.974;2022-08-03T11:45:55;99924.33;;;28.24;34.20
44313;BME280;38833;51.142;-0.974;2022-08-03T11:48:34;99931.00;;;28.02;34.21
44313;BME280;38833;51.142;-0.974;2022-08-03T11:51:19;99931.12;;;28.26;34.17
44313;BME280;38833;51.142;-0.974;2022-08-03T11:53:54;99923.82;;;28.03;34.20
44313;BME280;38833;51.142;-0.974;2022-08-03T11:56:28;99928.18;;;28.02;34.18
44313;BME280;38833;51.142;-0.974;2022-08-03T11:59:01;99923.88;;;28.02;34.22
44313;BME280;38833;51.142;-0.974;2022-08-03T12:01:35;99929.12;;;27.68;34.32
44313;BME280;38833;51.142;-0.974;2022-08-03T12:04:08;99919.86;;;27.96;34.37
44313;BME280;38833;51.142;-0.974;2022-08-03T12:06:57;99923.55;;;27.95;34.31
44313;BME280;38833;51.142;-0.974;2022-08-03T12:09:30;99925.77;;;27.66;34.37
44313;BME280;38833;51.142;-0.974;2022-08-03T12:12:04;99925.42;;;27.63;34.46
44313;BME280;38833;51.142;-0.974;2022-08-03T12:14:37;99927.17;;;27.66;34.38
44313;BME280;38833;51.142;-0.974;2022-08-03T12:17:10;99928.59;;;28.00;34.30
44313;BME280;38833;51.142;-0.974;2022-08-03T12:19:43;99931.77;;;27.97;34.31
44313;BME280;38833;51.142;-0.974;2022-08-03T12:22:30;99931.21;;;27.92;34.44
44313;BME280;38833;51.142;-0.974;2022-08-03T12:25:04;99931.31;;;28.16;34.40
44313;BME280;38833;51.142;-0.974;2022-08-03T12:27:38;99935.17;;;28.05;34.26
44313;BME280;38833;51.142;-0.974;2022-08-03T12:30:11;99933.99;;;28.03;34.31
44313;BME280;38833;51.142;-0.974;2022-08-03T12:32:45;99934.55;;;27.77;34.29
44313;BME280;38833;51.142;-0.974;2022-08-03T12:35:22;99936.38;;;27.75;34.31
44313;BME280;38833;51.142;-0.974;2022-08-03T12:37:55;99933.99;;;28.04;34.26
44313;BME280;38833;51.142;-0.974;2022-08-03T12:40:29;99938.57;;;27.80;34.22
44313;BME280;38833;51.142;-0.974;2022-08-03T12:43:10;99936.35;;;27.70;34.36
44313;BME280;38833;51.142;-0.974;2022-08-03T12:45:44;99932.14;;;28.06;34.15
44313;BME280;38833;51.142;-0.974;2022-08-03T12:48:17;99933.93;;;27.81;34.25
44313;BME280;38833;51.142;-0.974;2022-08-03T12:50:50;99927.23;;;28.06;34.31
44313;BME280;38833;51.142;-0.974;2022-08-03T12:53:27;99925.82;;;28.09;34.23
44313;BME280;38833;51.142;-0.974;2022-08-03T12:56:01;99922.17;;;28.37;34.22
44313;BME280;38833;51.142;-0.974;2022-08-03T12:58:35;99921.00;;;28.16;34.18
44313;BME280;38833;51.142;-0.974;2022-08-03T13:01:08;99918.00;;;28.44;34.13
44313;BME280;38833;51.142;-0.974;2022-08-03T13:03:43;99922.16;;;28.26;34.05
44313;BME280;38833;51.142;-0.974;2022-08-03T13:06:17;99921.34;;;28.31;34.01
44313;BME280;38833;51.142;-0.974;2022-08-03T13:09:03;99925.59;;;28.32;34.04
44313;BME280;38833;51.142;-0.974;2022-08-03T13:11:37;99919.86;;;28.15;33.88
44313;BME280;38833;51.142;-0.974;2022-08-03T13:14:10;99912.25;;;28.15;33.88
44313;BME280;38833;51.142;-0.974;2022-08-03T13:16:43;99911.51;;;27.83;34.32
44313;BME280;38833;51.142;-0.974;2022-08-03T13:19:16;99906.29;;;27.93;34.22
44313;BME280;38833;51.142;-0.974;2022-08-03T13:21:49;99902.31;;;27.86;34.37
44313;BME280;38833;51.142;-0.974;2022-08-03T13:24:23;99900.86;;;27.75;34.61
44313;BME280;38833;51.142;-0.974;2022-08-03T13:26:56;99901.51;;;28.07;34.78
44313;BME280;38833;51.142;-0.974;2022-08-03T13:29:29;99899.32;;;27.57;34.79
44313;BME280;38833;51.142;-0.974;2022-08-03T13:32:04;99903.46;;;27.49;34.91
44313;BME280;38833;51.142;-0.974;2022-08-03T13:34:37;99903.70;;;27.74;35.03